sensor_id;sensor_type;location;lat;lon;timestamp;pressure;altitude;pressure_sealevel;temperature;humidity
66396;BME280;53207;51.378;-1.342;2023-05-01T00:01:50;100470.81;;;21.94;39.42
66396;BME280;53207;51.378;-1.342;2023-05-01T00:04:17;100471.94;;;21.91;39.58
66396;BME280;53207;51.378;-1.342;2023-05-01T00:06:45;100470.54;;;22.00;39.04
66396;BME280;53207;51.378;-1.342;2023-05-01T00:09:12;100470.61;;;21.95;39.14
66396;BME280;53207;51.378;-1.342;2023-05-01T00:11:39;100467.69;;;21.96;38.95
66396;BME280;53207;51.378;-1.342;2023-05-01T00:14:06;100465.52;;;21.95;38.84
66396;BME280;53207;51.378;-1.342;2023-05-01T00:16:33;100463.46;;;21.89;38.94
66396;BME280;53207;51.378;-1.342;2023-05-01T00:19:00;100460.71;;;21.95;38.60
66396;BME280;53207;51.378;-1.342;2023-05-01T00:21:28;100456.38;;;21.85;38.79
66396;BME280;53207;51.378;-1.342;2023-05-01T00:23:55;100459.13;;;21.82;38.80
66396;BME280;53207;51.378;-1.342;2023-05-01T00:26:22;100453.60;;;21.83;38.77
66396;BME280;53207;51.378;-1.342;2023-05-01T00:28:50;100451.06;;;21.88;38.50
66396;BME280;53207;51.378;-1.342;2023-05-01T00:31:17;100447.24;;;21.59;38.50
66396;BME280;53207;51.378;-1.342;2023-05-01T00:33:44;100444.91;;;21.79;38.49
66396;BME280;53207;51.378;-1.342;2023-05-01T00:36:11;100440.93;;;21.77;38.45
66396;BME280;53207;51.378;-1.342;2023-05-01T00:38:38;100442.28;;;21.81;38.36
66396;BME280;53207;51.378;-1.342;2023-05-01T00:41:05;100437.52;;;21.83;38.22
66396;BME280;53207;51.378;-1.342;2023-05-01T00:43:33;100436.14;;;21.75;38.31
66396;BME280;53207;51.378;-1.342;2023-05-01T00:46:00;100428.16;;;21.80;38.13
66396;BME280;53207;51.378;-1.342;2023-05-01T00:48:28;100422.93;;;21.98;38.19
66396;BME280;53207;51.378;-1.342;2023-05-01T00:50:55;100417.79;;;21.73;38.18
66396;BME280;53207;51.378;-1.342;2023-05-01T00:53:23;100415.89;;;21.74;38.11
66396;BME280;53207;51.378;-1.342;2023-05-01T00:55:50;100414.59;;;21.42;38.16
66396;BME280;53207;51.378;-1.342;2023-05-01T00:58:17;100408.52;;;21.69;38.08
66396;BME280;53207;51.378;-1.342;2023-05-01T01:00:45;100410.29;;;21.66;38.06
66396;BME280;53207;51.378;-1.342;2023-05-01T01:03:12;100408.30;;;21.63;38.06
66396;BME280;53207;51.378;-1.342;2023-05-01T01:05:44;100403.62;;;21.80;38.11
66396;BME280;53207;51.378;-1.342;2023-05-01T01:08:21;100402.07;;;21.62;37.93
66396;BME280;53207;51.378;-1.342;2023-05-01T01:10:53;100400.24;;;21.65;37.83
66396;BME280;53207;51.378;-1.342;2023-05-01T01:13:28;100398.77;;;21.64;37.77
66396;BME280;53207;51.378;-1.342;2023-05-01T01:16:04;100400.70;;;21.59;37.81
66396;BME280;53207;51.378;-1.342;2023-05-01T01:18:39;100397.46;;;21.58;37.72
66396;BME280;53207;51.378;-1.342;2023-05-01T01:21:14;100392.29;;;21.55;37.65
66396;BME280;53207;51.378;-1.342;2023-05-01T01:24:02;100392.88;;;21.59;37.52
66396;BME280;53207;51.378;-1.342;2023-05-01T01:26:50;100386.53;;;21.56;37.49
66396;BME280;53207;51.378;-1.342;2023-05-01T01:29:43;100384.89;;;21.51;37.48
66396;BME280;53207;51.378;-1.342;2023-05-01T01:32:33;100383.13;;;21.56;37.30
66396;BME280;53207;51.378;-1.342;2023-05-01T01:35:09;100385.64;;;21.77;37.26
66396;BME280;53207;51.378;-1.342;2023-05-01T01:37:41;100385.60;;;21.49;37.28
66396;BME280;53207;51.378;-1.342;2023-05-01T01:40:12;100384.59;;;21.50;37.21
66396;BME280;53207;51.378;-1.342;2023-05-01T01:42:45;100382.96;;;21.53;37.14
66396;BME280;53207;51.378;-1.342;2023-05-01T01:45:17;100381.52;;;21.44;37.19
66396;BME280;53207;51.378;-1.342;2023-05-01T01:47:46;100378.19;;;21.43;37.12
66396;BME280;53207;51.378;-1.342;2023-05-01T01:50:15;100376.68;;;21.41;37.11
66396;BME280;53207;51.378;-1.342;2023-05-01T01:52:45;100375.90;;;21.63;37.08
66396;BME280;53207;51.378;-1.342;2023-05-01T01:55:14;100373.38;;;21.72;37.19
66396;BME280;53207;51.378;-1.342;2023-05-01T01:57:42;100370.91;;;21.37;37.00
66396;BME280;53207;51.378;-1.342;2023-05-01T02:00:13;100372.86;;;21.34;36.97
66396;BME280;53207;51.378;-1.342;2023-05-01T02:02:41;100367.93;;;21.28;37.01
66396;BME280;53207;51.378;-1.342;2023-05-01T02:05:12;100372.35;;;21.31;36.92
66396;BME280;53207;51.378;-1.342;2023-05-01T02:07:42;100375.22;;;21.42;37.03
66396;BME280;53207;51.378;-1.342;2023-05-01T02:10:12;100376.34;;;21.68;36.91
66396;BME280;53207;51.378;-1.342;2023-05-01T02:12:42;100378.55;;;21.46;36.84
66396;BME280;53207;51.378;-1.342;2023-05-01T02:15:10;100376.08;;;21.44;36.79
66396;BME280;53207;51.378;-1.342;2023-05-01T02:17:40;100372.81;;;21.43;36.80
66396;BME280;53207;51.378;-1.342;2023-05-01T02:20:09;100364.04;;;21.22;36.67
66396;BME280;53207;51.378;-1.342;2023-05-01T02:22:38;100363.21;;;21.43;36.67
66396;BME280;53207;51.378;-1.342;2023-05-01T02:25:06;100358.32;;;21.57;36.75
66396;BME280;53207;51.378;-1.342;2023-05-01T02:27:38;100359.77;;;21.51;36.80
66396;BME280;53207;51.378;-1.342;2023-05-01T02:30:07;100360.48;;;21.22;36.51
66396;BME280;53207;51.378;-1.342;2023-05-01T02:32:34;100356.37;;;21.21;36.52
66396;BME280;53207;51.378;-1.342;2023-05-01T02:35:01;100352.87;;;21.09;36.60
66396;BME280;53207;51.378;-1.342;2023-05-01T02:37:29;100353.03;;;21.54;36.48
66396;BME280;53207;51.378;-1.342;2023-05-01T02:39:56;100352.33;;;21.53;36.38
66396;BME280;53207;51.378;-1.342;2023-05-01T02:42:24;100352.18;;;21.15;36.22
66396;BME280;53207;51.378;-1.342;2023-05-01T02:44:56;100346.07;;;21.14;36.26
66396;BME280;53207;51.378;-1.342;2023-05-01T02:47:24;100343.06;;;21.09;36.28
66396;BME280;53207;51.378;-1.342;2023-05-01T02:49:53;100341.39;;;21.33;36.27
66396;BME280;53207;51.378;-1.342;2023-05-01T02:52:21;100340.01;;;21.34;36.24
66396;BME280;53207;51.378;-1.342;2023-05-01T02:54:48;100339.74;;;21.53;36.29
66396;BME280;53207;51.378;-1.342;2023-05-01T02:57:17;100340.37;;;21.50;36.36
66396;BME280;53207;51.378;-1.342;2023-05-01T02:59:44;100339.95;;;21.47;36.32
66396;BME280;53207;51.378;-1.342;2023-05-01T03:02:11;100339.41;;;21.49;36.22
66396;BME280;53207;51.378;-1.342;2023-05-01T03:04:39;100333.17;;;21.26;36.19
66396;BME280;53207;51.378;-1.342;2023-05-01T03:07:06;100331.32;;;21.27;36.18
66396;BME280;53207;51.378;-1.342;2023-05-01T03:09:33;100328.54;;;21.49;36.15
66396;BME280;53207;51.378;-1.342;2023-05-01T03:12:00;100325.42;;;21.48;36.10
66396;BME280;53207;51.378;-1.342;2023-05-01T03:14:28;100322.93;;;20.97;36.16
66396;BME280;53207;51.378;-1.342;2023-05-01T03:16:55;100315.19;;;21.44;36.12
66396;BME280;53207;51.378;-1.342;2023-05-01T03:19:22;100314.35;;;21.20;36.13
66396;BME280;53207;51.378;-1.342;2023-05-01T03:21:49;100312.18;;;21.43;36.09
66396;BME280;53207;51.378;-1.342;2023-05-01T03:24:17;100310.42;;;21.23;36.01
66396;BME280;53207;51.378;-1.342;2023-05-01T03:26:44;100310.53;;;20.95;36.09
66396;BME280;53207;51.378;-1.342;2023-05-01T03:29:11;100310.91;;;21.10;36.19
66396;BME280;53207;51.378;-1.342;2023-05-01T03:31:39;100310.55;;;21.39;36.08
66396;BME280;53207;51.378;-1.342;2023-05-01T03:34:06;100313.79;;;21.11;36.21
66396;BME280;53207;51.378;-1.342;2023-05-01T03:36:33;100316.47;;;20.88;36.25
66396;BME280;53207;51.378;-1.342;2023-05-01T03:39:01;100315.26;;;21.16;36.12
66396;BME280;53207;51.378;-1.342;2023-05-01T03:41:29;100316.52;;;20.92;36.11
66396;BME280;53207;51.378;-1.342;2023-05-01T03:43:56;100314.72;;;21.16;36.06
66396;BME280;53207;51.378;-1.342;2023-05-01T03:46:23;100308.67;;;21.34;36.09
66396;BME280;53207;51.378;-1.342;2023-05-01T03:48:51;100305.50;;;21.31;36.11
66396;BME280;53207;51.378;-1.342;2023-05-01T03:51:18;100303.68;;;21.30;36.08
66396;BME280;53207;51.378;-1.342;2023-05-01T03:53:45;100302.22;;;21.09;36.00
66396;BME280;53207;51.378;-1.342;2023-05-01T03:56:12;100298.39;;;20.90;35.96
66396;BME280;53207;51.378;-1.342;2023-05-01T03:58:40;100296.53;;;20.88;35.94
66396;BME280;53207;51.378;-1.342;2023-05-01T04:01:07;100298.17;;;21.21;36.08
66396;BME280;53207;51.378;-1.342;2023-05-01T04:03:34;100296.58;;;21.24;36.01
66396;BME280;53207;51.378;-1.342;2023-05-01T04:06:02;100293.51;;;21.22;36.01
66396;BME280;53207;51.378;-1.342;2023-05-01T04:08:29;100297.36;;;21.04;35.95
66396;BME280;53207;51.378;-1.342;2023-05-01T04:10:56;100297.01;;;20.97;36.04
66396;BME280;53207;51.378;-1.342;2023-05-01T04:13:24;100297.69;;;21.22;35.95
66396;BME280;53207;51.378;-1.342;2023-05-01T04:15:51;100297.53;;;21.19;35.92
66396;BME280;53207;51.378;-1.342;2023-05-01T04:18:18;100299.17;;;21.19;35.90
66396;BME280;53207;51.378;-1.342;2023-05-01T04:20:45;100298.14;;;21.22;35.85
66396;BME280;53207;51.378;-1.342;2023-05-01T04:23:13;100296.26;;;20.94;35.93
66396;BME280;53207;51.378;-1.342;2023-05-01T04:25:40;100295.92;;;20.92;35.88
66396;BME280;53207;51.378;-1.342;2023-05-01T04:28:10;100296.21;;;21.13;35.89
66396;BME280;53207;51.378;-1.342;2023-05-01T04:30:37;100297.09;;;21.17;35.83
66396;BME280;53207;51.378;-1.342;2023-05-01T04:33:04;100299.72;;;20.89;35.88
66396;BME280;53207;51.378;-1.342;2023-05-01T04:35:31;100299.20;;;20.91;35.87
66396;BME280;53207;51.378;-1.342;2023-05-01T04:37:58;100304.92;;;20.99;36.02
66396;BME280;53207;51.378;-1.342;2023-05-01T04:40:26;100306.21;;;21.03;35.90
66396;BME280;53207;51.378;-1.342;2023-05-01T04:42:53;100302.22;;;20.60;35.86
66396;BME280;53207;51.378;-1.342;2023-05-01T04:45:20;100303.78;;;21.00;35.88
66396;BME280;53207;51.378;-1.342;2023-05-01T04:47:48;100302.48;;;20.79;35.87
66396;BME280;53207;51.378;-1.342;2023-05-01T04:50:15;100303.71;;;20.74;35.90
66396;BME280;53207;51.378;-1.342;2023-05-01T04:52:42;100305.44;;;21.03;35.79
66396;BME280;53207;51.378;-1.342;2023-05-01T04:55:09;100304.83;;;21.02;35.79
66396;BME280;53207;51.378;-1.342;2023-05-01T04:57:37;100299.59;;;20.98;35.83
66396;BME280;53207;51.378;-1.342;2023-05-01T05:00:05;100295.79;;;20.97;35.85
66396;BME280;53207;51.378;-1.342;2023-05-01T05:02:32;100294.45;;;21.02;35.75
66396;BME280;53207;51.378;-1.342;2023-05-01T05:05:00;100295.03;;;20.98;35.81
66396;BME280;53207;51.378;-1.342;2023-05-01T05:07:27;100298.13;;;20.96;35.76
66396;BME280;53207;51.378;-1.342;2023-05-01T05:09:54;100304.86;;;20.84;35.95
66396;BME280;53207;51.378;-1.342;2023-05-01T05:12:21;100307.03;;;20.93;35.78
66396;BME280;53207;51.378;-1.342;2023-05-01T05:14:49;100305.10;;;20.90;35.82
66396;BME280;53207;51.378;-1.342;2023-05-01T05:17:16;100303.31;;;20.89;35.82
66396;BME280;53207;51.378;-1.342;2023-05-01T05:19:43;100306.51;;;20.71;35.75
66396;BME280;53207;51.378;-1.342;2023-05-01T05:22:11;100314.50;;;20.90;35.81
66396;BME280;53207;51.378;-1.342;2023-05-01T05:24:38;100316.88;;;20.95;35.72
66396;BME280;53207;51.378;-1.342;2023-05-01T05:27:05;100321.08;;;21.01;35.67
66396;BME280;53207;51.378;-1.342;2023-05-01T05:29:33;100324.07;;;20.98;35.69
66396;BME280;53207;51.378;-1.342;2023-05-01T05:32:00;100325.23;;;21.06;35.65
66396;BME280;53207;51.378;-1.342;2023-05-01T05:34:28;100321.73;;;21.22;35.56
66396;BME280;53207;51.378;-1.342;2023-05-01T05:36:54;100324.42;;;21.32;35.59
66396;BME280;53207;51.378;-1.342;2023-05-01T05:39:22;100328.96;;;21.45;35.55
66396;BME280;53207;51.378;-1.342;2023-05-01T05:41:49;100328.85;;;21.51;35.57
66396;BME280;53207;51.378;-1.342;2023-05-01T05:44:16;100329.51;;;21.40;35.46
66396;BME280;53207;51.378;-1.342;2023-05-01T05:46:44;100333.91;;;21.50;35.36
66396;BME280;53207;51.378;-1.342;2023-05-01T05:49:11;100335.27;;;21.55;35.30
66396;BME280;53207;51.378;-1.342;2023-05-01T05:51:38;100333.05;;;21.78;35.26
66396;BME280;53207;51.378;-1.342;2023-05-01T05:54:05;100331.93;;;21.37;35.16
66396;BME280;53207;51.378;-1.342;2023-05-01T05:56:33;100335.41;;;21.85;35.07
66396;BME280;53207;51.378;-1.342;2023-05-01T05:59:00;100335.12;;;21.42;35.03
66396;BME280;53207;51.378;-1.342;2023-05-01T06:01:28;100336.76;;;21.45;35.00
66396;BME280;53207;51.378;-1.342;2023-05-01T06:03:55;100338.66;;;21.46;34.98
66396;BME280;53207;51.378;-1.342;2023-05-01T06:06:22;100339.01;;;21.47;34.94
66396;BME280;53207;51.378;-1.342;2023-05-01T06:08:49;100334.77;;;21.68;34.95
66396;BME280;53207;51.378;-1.342;2023-05-01T06:11:16;100340.74;;;21.49;34.90
66396;BME280;53207;51.378;-1.342;2023-05-01T06:13:44;100339.84;;;21.50;34.89
66396;BME280;53207;51.378;-1.342;2023-05-01T06:16:11;100343.37;;;21.70;34.89
66396;BME280;53207;51.378;-1.342;2023-05-01T06:18:38;100340.81;;;21.45;34.97
66396;BME280;53207;51.378;-1.342;2023-05-01T06:21:06;100339.14;;;21.52;35.08
66396;BME280;53207;51.378;-1.342;2023-05-01T06:23:33;100343.85;;;21.72;35.18
66396;BME280;53207;51.378;-1.342;2023-05-01T06:26:00;100341.86;;;21.48;35.24
66396;BME280;53207;51.378;-1.342;2023-05-01T06:28:28;100339.25;;;21.49;35.28
66396;BME280;53207;51.378;-1.342;2023-05-01T06:30:55;100340.50;;;21.69;35.34
66396;BME280;53207;51.378;-1.342;2023-05-01T06:33:22;100341.30;;;21.41;35.48
66396;BME280;53207;51.378;-1.342;2023-05-01T06:35:49;100345.84;;;21.90;35.34
66396;BME280;53207;51.378;-1.342;2023-05-01T06:38:17;100350.31;;;21.37;35.43
66396;BME280;53207;51.378;-1.342;2023-05-01T06:40:44;100350.53;;;21.64;35.46
66396;BME280;53207;51.378;-1.342;2023-05-01T06:43:11;100352.18;;;21.59;35.52
66396;BME280;53207;51.378;-1.342;2023-05-01T06:45:38;100351.72;;;21.61;35.53
66396;BME280;53207;51.378;-1.342;2023-05-01T06:48:06;100355.56;;;21.53;35.69
66396;BME280;53207;51.378;-1.342;2023-05-01T06:50:33;100355.26;;;21.54;35.65
66396;BME280;53207;51.378;-1.342;2023-05-01T06:53:00;100358.82;;;21.55;35.61
66396;BME280;53207;51.378;-1.342;2023-05-01T06:55:28;100359.40;;;21.40;35.58
66396;BME280;53207;51.378;-1.342;2023-05-01T06:57:55;100360.70;;;21.64;35.62
66396;BME280;53207;51.378;-1.342;2023-05-01T07:00:22;100361.34;;;21.39;35.59
66396;BME280;53207;51.378;-1.342;2023-05-01T07:02:49;100360.29;;;21.37;35.67
66396;BME280;53207;51.378;-1.342;2023-05-01T07:05:17;100360.50;;;21.31;35.65
66396;BME280;53207;51.378;-1.342;2023-05-01T07:07:44;100366.81;;;21.63;35.59
66396;BME280;53207;51.378;-1.342;2023-05-01T07:10:11;100374.13;;;21.55;35.68
66396;BME280;53207;51.378;-1.342;2023-05-01T07:12:39;100372.64;;;21.30;35.74
66396;BME280;53207;51.378;-1.342;2023-05-01T07:15:07;100376.68;;;21.70;35.84
66396;BME280;53207;51.378;-1.342;2023-05-01T07:17:34;100376.63;;;21.28;35.86
66396;BME280;53207;51.378;-1.342;2023-05-01T07:20:01;100373.89;;;21.46;35.98
66396;BME280;53207;51.378;-1.342;2023-05-01T07:22:29;100376.70;;;21.34;35.87
66396;BME280;53207;51.378;-1.342;2023-05-01T07:24:56;100374.72;;;21.83;36.07
66396;BME280;53207;51.378;-1.342;2023-05-01T07:27:23;100376.75;;;21.37;35.94
66396;BME280;53207;51.378;-1.342;2023-05-01T07:29:50;100379.49;;;21.39;35.98
66396;BME280;53207;51.378;-1.342;2023-05-01T07:32:18;100381.02;;;21.42;35.86
66396;BME280;53207;51.378;-1.342;2023-05-01T07:34:45;100380.79;;;21.64;35.96
66396;BME280;53207;51.378;-1.342;2023-05-01T07:37:12;100379.44;;;21.47;35.95
66396;BME280;53207;51.378;-1.342;2023-05-01T07:39:39;100381.35;;;21.42;35.98
66396;BME280;53207;51.378;-1.342;2023-05-01T07:42:06;100384.56;;;21.48;35.94
66396;BME280;53207;51.378;-1.342;2023-05-01T07:44:34;100384.23;;;21.76;35.87
66396;BME280;53207;51.378;-1.342;2023-05-01T07:47:03;100384.98;;;21.48;36.30
66396;BME280;53207;51.378;-1.342;2023-05-01T07:49:34;100390.23;;;21.82;35.94
66396;BME280;53207;51.378;-1.342;2023-05-01T07:52:02;100390.44;;;21.46;36.23
66396;BME280;53207;51.378;-1.342;2023-05-01T07:54:34;100389.81;;;21.46;36.14
66396;BME280;53207;51.378;-1.342;2023-05-01T07:57:02;100388.18;;;21.38;36.39
66396;BME280;53207;51.378;-1.342;2023-05-01T07:59:29;100387.67;;;21.47;36.14
66396;BME280;53207;51.378;-1.342;2023-05-01T08:01:56;100388.75;;;21.43;36.28
66396;BME280;53207;51.378;-1.342;2023-05-01T08:04:23;100388.80;;;21.45;36.27
66396;BME280;53207;51.378;-1.342;2023-05-01T08:06:51;100387.28;;;21.45;36.27
66396;BME280;53207;51.378;-1.342;2023-05-01T08:09:18;100390.12;;;21.64;36.39
66396;BME280;53207;51.378;-1.342;2023-05-01T08:11:45;100390.01;;;21.58;36.05
66396;BME280;53207;51.378;-1.342;2023-05-01T08:14:12;100391.44;;;21.41;36.46
66396;BME280;53207;51.378;-1.342;2023-05-01T08:16:40;100387.84;;;21.44;36.34
66396;BME280;53207;51.378;-1.342;2023-05-01T08:19:07;100388.32;;;21.93;36.32
66396;BME280;53207;51.378;-1.342;2023-05-01T08:21:34;100387.63;;;21.47;36.61
66396;BME280;53207;51.378;-1.342;2023-05-01T08:24:01;100391.07;;;21.40;36.85
66396;BME280;53207;51.378;-1.342;2023-05-01T08:26:29;100394.82;;;21.50;36.51
66396;BME280;53207;51.378;-1.342;2023-05-01T08:28:56;100399.63;;;21.43;36.71
66396;BME280;53207;51.378;-1.342;2023-05-01T08:31:23;100399.35;;;21.54;36.64
66396;BME280;53207;51.378;-1.342;2023-05-01T08:33:50;100402.92;;;21.46;36.76
66396;BME280;53207;51.378;-1.342;2023-05-01T08:36:18;100401.96;;;21.65;36.91
66396;BME280;53207;51.378;-1.342;2023-05-01T08:38:45;100406.61;;;21.37;36.99
66396;BME280;53207;51.378;-1.342;2023-05-01T08:41:15;100409.41;;;21.28;37.35
66396;BME280;53207;51.378;-1.342;2023-05-01T08:43:46;100409.13;;;21.37;37.04
66396;BME280;53207;51.378;-1.342;2023-05-01T08:46:18;100412.66;;;21.49;37.47
66396;BME280;53207;51.378;-1.342;2023-05-01T08:48:49;100411.18;;;21.32;37.36
66396;BME280;53207;51.378;-1.342;2023-05-01T08:51:17;100413.70;;;21.31;37.46
66396;BME280;53207;51.378;-1.342;2023-05-01T08:53:47;100415.47;;;21.77;37.54
66396;BME280;53207;51.378;-1.342;2023-05-01T08:56:14;100414.01;;;21.37;37.34
66396;BME280;53207;51.378;-1.342;2023-05-01T08:58:43;100415.08;;;21.26;37.52
66396;BME280;53207;51.378;-1.342;2023-05-01T09:01:15;100416.43;;;21.32;37.26
66396;BME280;53207;51.378;-1.342;2023-05-01T09:03:44;100419.97;;;21.60;37.21
66396;BME280;53207;51.378;-1.342;2023-05-01T09:06:12;100424.05;;;21.34;37.20
66396;BME280;53207;51.378;-1.342;2023-05-01T09:08:40;100422.95;;;21.45;37.14
66396;BME280;53207;51.378;-1.342;2023-05-01T09:11:07;100426.01;;;21.45;37.34
66396;BME280;53207;51.378;-1.342;2023-05-01T09:13:34;100424.72;;;21.56;37.30
66396;BME280;53207;51.378;-1.342;2023-05-01T09:16:03;100424.06;;;21.73;37.51
66396;BME280;53207;51.378;-1.342;2023-05-01T09:18:33;100425.16;;;21.38;37.30
66396;BME280;53207;51.378;-1.342;2023-05-01T09:21:01;100424.21;;;21.68;37.38
66396;BME280;53207;51.378;-1.342;2023-05-01T09:23:28;100425.20;;;21.62;37.57
66396;BME280;53207;51.378;-1.342;2023-05-01T09:25:56;100424.56;;;21.80;37.37
66396;BME280;53207;51.378;-1.342;2023-05-01T09:28:41;100429.00;;;21.66;37.52
66396;BME280;53207;51.378;-1.342;2023-05-01T09:31:25;100429.68;;;21.73;37.63
66396;BME280;53207;51.378;-1.342;2023-05-01T09:33:54;100431.32;;;21.78;37.63
66396;BME280;53207;51.378;-1.342;2023-05-01T09:36:22;100429.73;;;21.84;37.71
66396;BME280;53207;51.378;-1.342;2023-05-01T09:38:50;100425.72;;;21.78;37.89
66396;BME280;53207;51.378;-1.342;2023-05-01T09:41:18;100426.04;;;21.82;37.75
66396;BME280;53207;51.378;-1.342;2023-05-01T09:43:49;100426.11;;;21.71;37.74
66396;BME280;53207;51.378;-1.342;2023-05-01T09:46:16;100430.47;;;21.97;37.61
66396;BME280;53207;51.378;-1.342;2023-05-01T09:48:52;100434.15;;;21.77;37.43
66396;BME280;53207;51.378;-1.342;2023-05-01T09:51:22;100435.05;;;21.62;37.48
66396;BME280;53207;51.378;-1.342;2023-05-01T09:53:49;100438.60;;;21.83;37.43
66396;BME280;53207;51.378;-1.342;2023-05-01T09:56:18;100437.96;;;21.73;37.08
66396;BME280;53207;51.378;-1.342;2023-05-01T09:58:44;100432.47;;;21.66;37.13
66396;BME280;53207;51.378;-1.342;2023-05-01T10:01:11;100435.79;;;21.83;37.08
66396;BME280;53207;51.378;-1.342;2023-05-01T10:03:38;100435.02;;;21.58;37.17
66396;BME280;53207;51.378;-1.342;2023-05-01T10:06:08;100434.93;;;21.72;36.87
66396;BME280;53207;51.378;-1.342;2023-05-01T10:08:46;100433.26;;;21.58;36.96
66396;BME280;53207;51.378;-1.342;2023-05-01T10:11:13;100435.24;;;21.95;36.99
66396;BME280;53207;51.378;-1.342;2023-05-01T10:13:40;100434.92;;;21.45;37.04
66396;BME280;53207;51.378;-1.342;2023-05-01T10:16:27;100438.59;;;21.56;36.86
66396;BME280;53207;51.378;-1.342;2023-05-01T10:18:56;100435.08;;;21.53;36.89
66396;BME280;53207;51.378;-1.342;2023-05-01T10:21:24;100436.84;;;21.54;36.91
66396;BME280;53207;51.378;-1.342;2023-05-01T10:23:51;100434.14;;;21.67;36.68
66396;BME280;53207;51.378;-1.342;2023-05-01T10:26:18;100435.40;;;21.61;36.81
66396;BME280;53207;51.378;-1.342;2023-05-01T10:28:47;100433.32;;;21.72;36.74
66396;BME280;53207;51.378;-1.342;2023-05-01T10:31:15;100430.45;;;21.66;36.77
66396;BME280;53207;51.378;-1.342;2023-05-01T10:33:42;100430.75;;;21.60;36.79
66396;BME280;53207;51.378;-1.342;2023-05-01T10:36:12;100434.58;;;21.64;36.69
66396;BME280;53207;51.378;-1.342;2023-05-01T10:38:42;100433.65;;;21.81;36.71
66396;BME280;53207;51.378;-1.342;2023-05-01T10:41:10;100432.25;;;21.53;36.67
66396;BME280;53207;51.378;-1.342;2023-05-01T10:43:37;100436.31;;;21.61;36.56
66396;BME280;53207;51.378;-1.342;2023-05-01T10:46:26;100438.44;;;21.98;36.61
66396;BME280;53207;51.378;-1.342;2023-05-01T10:48:55;100442.04;;;21.42;36.69
66396;BME280;53207;51.378;-1.342;2023-05-01T10:51:23;100441.83;;;21.62;36.76
66396;BME280;53207;51.378;-1.342;2023-05-01T10:54:22;100445.89;;;21.78;36.79
66396;BME280;53207;51.378;-1.342;2023-05-01T10:56:49;100446.76;;;21.40;36.77
66396;BME280;53207;51.378;-1.342;2023-05-01T10:59:17;100448.73;;;21.40;36.70
66396;BME280;53207;51.378;-1.342;2023-05-01T11:01:44;100452.32;;;21.60;36.75
66396;BME280;53207;51.378;-1.342;2023-05-01T11:04:47;100455.75;;;21.34;36.67
66396;BME280;53207;51.378;-1.342;2023-05-01T11:07:16;100462.42;;;21.53;36.72
66396;BME280;53207;51.378;-1.342;2023-05-01T11:09:44;100465.09;;;21.30;36.65
66396;BME280;53207;51.378;-1.342;2023-05-01T11:12:13;100464.66;;;21.31;36.66
66396;BME280;53207;51.378;-1.342;2023-05-01T11:15:24;100468.23;;;21.34;36.68
66396;BME280;53207;51.378;-1.342;2023-05-01T11:17:52;100469.66;;;21.38;36.66
66396;BME280;53207;51.378;-1.342;2023-05-01T11:20:52;100470.00;;;21.47;36.55
66396;BME280;53207;51.378;-1.342;2023-05-01T11:23:20;100470.42;;;21.70;36.49
66396;BME280;53207;51.378;-1.342;2023-05-01T11:25:48;100472.11;;;21.39;36.58
66396;BME280;53207;51.378;-1.342;2023-05-01T11:28:19;100471.65;;;21.44;36.48
66396;BME280;53207;51.378;-1.342;2023-05-01T11:30:46;100468.23;;;21.41;36.44
66396;BME280;53207;51.378;-1.342;2023-05-01T11:33:21;100467.96;;;21.31;36.49
66396;BME280;53207;51.378;-1.342;2023-05-01T11:35:57;100466.28;;;21.42;36.46
66396;BME280;53207;51.378;-1.342;2023-05-01T11:38:24;100462.56;;;21.42;36.43
66396;BME280;53207;51.378;-1.342;2023-05-01T11:40:54;100462.73;;;21.56;36.28
66396;BME280;53207;51.378;-1.342;2023-05-01T11:43:22;100460.55;;;21.63;36.22
66396;BME280;53207;51.378;-1.342;2023-05-01T11:45:52;100462.15;;;21.63;36.21
66396;BME280;53207;51.378;-1.342;2023-05-01T11:48:20;100463.93;;;21.57;36.29
66396;BME280;53207;51.378;-1.342;2023-05-01T11:50:47;100463.26;;;21.61;36.22
66396;BME280;53207;51.378;-1.342;2023-05-01T11:53:14;100468.21;;;21.56;36.31
66396;BME280;53207;51.378;-1.342;2023-05-01T11:55:42;100470.20;;;21.29;36.27
66396;BME280;53207;51.378;-1.342;2023-05-01T11:58:10;100469.88;;;21.83;36.18
66396;BME280;53207;51.378;-1.342;2023-05-01T12:00:39;100471.21;;;21.70;36.07
66396;BME280;53207;51.378;-1.342;2023-05-01T12:03:07;100471.00;;;21.63;36.12
66396;BME280;53207;51.378;-1.342;2023-05-01T12:05:38;100473.43;;;21.67;36.13
66396;BME280;53207;51.378;-1.342;2023-05-01T12:08:08;100474.26;;;21.64;36.10
66396;BME280;53207;51.378;-1.342;2023-05-01T12:10:37;100477.51;;;21.79;35.98
66396;BME280;53207;51.378;-1.342;2023-05-01T12:13:05;100479.41;;;21.73;36.01
66396;BME280;53207;51.378;-1.342;2023-05-01T12:15:34;100481.41;;;21.78;36.00
66396;BME280;53207;51.378;-1.342;2023-05-01T12:18:02;100477.76;;;21.94;36.01
66396;BME280;53207;51.378;-1.342;2023-05-01T12:20:38;100477.88;;;21.76;35.91
66396;BME280;53207;51.378;-1.342;2023-05-01T12:23:07;100476.05;;;21.90;36.01
66396;BME280;53207;51.378;-1.342;2023-05-01T12:25:35;100473.35;;;21.73;35.92
66396;BME280;53207;51.378;-1.342;2023-05-01T12:28:07;100475.96;;;21.93;35.49
66396;BME280;53207;51.378;-1.342;2023-05-01T12:30:36;100475.21;;;21.89;35.45
66396;BME280;53207;51.378;-1.342;2023-05-01T12:33:09;100474.46;;;22.05;35.23
66396;BME280;53207;51.378;-1.342;2023-05-01T12:35:37;100476.74;;;21.74;35.15
66396;BME280;53207;51.378;-1.342;2023-05-01T12:38:14;100478.84;;;21.90;35.37
66396;BME280;53207;51.378;-1.342;2023-05-01T12:40:50;100480.28;;;21.95;35.20
66396;BME280;53207;51.378;-1.342;2023-05-01T12:43:19;100483.50;;;21.77;35.42
66396;BME280;53207;51.378;-1.342;2023-05-01T12:45:51;100493.52;;;21.81;35.40
66396;BME280;53207;51.378;-1.342;2023-05-01T12:48:18;100498.70;;;21.83;35.36
66396;BME280;53207;51.378;-1.342;2023-05-01T12:50:46;100501.46;;;21.64;35.54